sensor_id;sensor_type;location;lat;lon;timestamp;temperature;humidity
13223;DHT22;6676;45.192;5.722;2023-05-07T00:01:49;19.10;99.90
13223;DHT22;6676;45.192;5.722;2023-05-07T00:04:43;19.10;99.90
13223;DHT22;6676;45.192;5.722;2023-05-07T00:07:35;19.00;99.90
13223;DHT22;6676;45.192;5.722;2023-05-07T00:10:27;19.00;99.90
13223;DHT22;6676;45.192;5.722;2023-05-07T00:13:18;19.00;99.90
13223;DHT22;6676;45.192;5.722;2023-05-07T00:16:09;19.00;99.90
13223;DHT22;6676;45.192;5.722;2023-05-07T00:19:01;18.90;99.90
13223;DHT22;6676;45.192;5.722;2023-05-07T00:21:52;18.90;99.90
13223;DHT22;6676;45.192;5.722;2023-05-07T00:24:45;18.90;99.90
13223;DHT22;6676;45.192;5.722;2023-05-07T00:27:37;18.90;99.90
13223;DHT22;6676;45.192;5.722;2023-05-07T00:30:29;18.80;99.90
13223;DHT22;6676;45.192;5.722;2023-05-07T00:33:20;18.70;99.90
13223;DHT22;6676;45.192;5.722;2023-05-07T00:36:12;18.60;99.90
13223;DHT22;6676;45.192;5.722;2023-05-07T00:39:04;18.60;99.90
13223;DHT22;6676;45.192;5.722;2023-05-07T00:41:55;18.60;99.90
13223;DHT22;6676;45.192;5.722;2023-05-07T00:44:47;18.60;99.90
13223;DHT22;6676;45.192;5.722;2023-05-07T00:47:38;18.50;99.90
13223;DHT22;6676;45.192;5.722;2023-05-07T00:50:31;18.50;99.90
13223;DHT22;6676;45.192;5.722;2023-05-07T00:53:22;18.30;99.90
13223;DHT22;6676;45.192;5.722;2023-05-07T00:56:14;18.30;99.90
13223;DHT22;6676;45.192;5.722;2023-05-07T00:59:06;18.30;99.90
13223;DHT22;6676;45.192;5.722;2023-05-07T01:01:59;18.20;99.90
13223;DHT22;6676;45.192;5.722;2023-05-07T01:04:52;18.30;99.90
13223;DHT22;6676;45.192;5.722;2023-05-07T01:07:47;18.30;99.90
13223;DHT22;6676;45.192;5.722;2023-05-07T01:10:42;18.20;99.90
13223;DHT22;6676;45.192;5.722;2023-05-07T01:13:35;18.20;99.90
13223;DHT22;6676;45.192;5.722;2023-05-07T01:16:27;18.10;99.90
13223;DHT22;6676;45.192;5.722;2023-05-07T01:19:19;18.10;99.90
13223;DHT22;6676;45.192;5.722;2023-05-07T01:22:11;18.10;99.90
13223;DHT22;6676;45.192;5.722;2023-05-07T01:25:10;18.10;99.90
13223;DHT22;6676;45.192;5.722;2023-05-07T01:28:03;18.00;99.90
13223;DHT22;6676;45.192;5.722;2023-05-07T01:30:59;18.00;99.90
13223;DHT22;6676;45.192;5.722;2023-05-07T01:33:53;18.00;99.90
13223;DHT22;6676;45.192;5.722;2023-05-07T01:36:46;18.10;99.90
13223;DHT22;6676;45.192;5.722;2023-05-07T01:39:40;18.00;99.90
13223;DHT22;6676;45.192;5.722;2023-05-07T01:42:32;18.00;99.90
13223;DHT22;6676;45.192;5.722;2023-05-07T01:45:22;18.00;99.90
13223;DHT22;6676;45.192;5.722;2023-05-07T01:50:58;18.00;99.90
13223;DHT22;6676;45.192;5.722;2023-05-07T01:53:50;17.90;99.90
13223;DHT22;6676;45.192;5.722;2023-05-07T01:56:43;17.90;99.90
13223;DHT22;6676;45.192;5.722;2023-05-07T01:59:35;17.90;99.90
13223;DHT22;6676;45.192;5.722;2023-05-07T02:02:26;17.90;99.90
13223;DHT22;6676;45.192;5.722;2023-05-07T02:05:18;17.90;99.90
13223;DHT22;6676;45.192;5.722;2023-05-07T02:08:11;17.90;99.90
13223;DHT22;6676;45.192;5.722;2023-05-07T02:11:03;17.80;99.90
13223;DHT22;6676;45.192;5.722;2023-05-07T02:13:56;17.80;99.90
13223;DHT22;6676;45.192;5.722;2023-05-07T02:16:48;17.80;99.90
13223;DHT22;6676;45.192;5.722;2023-05-07T02:19:40;17.80;99.90
13223;DHT22;6676;45.192;5.722;2023-05-07T02:22:32;17.70;99.90
13223;DHT22;6676;45.192;5.722;2023-05-07T02:25:24;17.60;99.90
13223;DHT22;6676;45.192;5.722;2023-05-07T02:28:16;17.50;99.90
13223;DHT22;6676;45.192;5.722;2023-05-07T02:31:08;17.40;99.90
13223;DHT22;6676;45.192;5.722;2023-05-07T02:34:00;17.40;99.90
13223;DHT22;6676;45.192;5.722;2023-05-07T02:36:52;17.40;99.90
13223;DHT22;6676;45.192;5.722;2023-05-07T02:39:47;17.30;99.90
13223;DHT22;6676;45.192;5.722;2023-05-07T02:42:39;17.30;99.90
13223;DHT22;6676;45.192;5.722;2023-05-07T02:45:30;17.30;99.90
13223;DHT22;6676;45.192;5.722;2023-05-07T02:48:25;17.40;99.90
13223;DHT22;6676;45.192;5.722;2023-05-07T02:51:17;17.40;99.90
13223;DHT22;6676;45.192;5.722;2023-05-07T02:54:09;17.50;99.90
13223;DHT22;6676;45.192;5.722;2023-05-07T02:57:00;17.40;99.90
13223;DHT22;6676;45.192;5.722;2023-05-07T02:59:53;17.20;99.90
13223;DHT22;6676;45.192;5.722;2023-05-07T03:02:45;17.10;99.90
13223;DHT22;6676;45.192;5.722;2023-05-07T03:05:38;17.10;99.90
13223;DHT22;6676;45.192;5.722;2023-05-07T03:08:29;17.00;99.90
13223;DHT22;6676;45.192;5.722;2023-05-07T03:11:21;17.00;99.90
13223;DHT22;6676;45.192;5.722;2023-05-07T03:14:12;17.00;99.90
13223;DHT22;6676;45.192;5.722;2023-05-07T03:17:03;16.90;99.90
13223;DHT22;6676;45.192;5.722;2023-05-07T03:19:55;16.90;99.90
13223;DHT22;6676;45.192;5.722;2023-05-07T03:22:47;16.80;99.90
13223;DHT22;6676;45.192;5.722;2023-05-07T03:25:45;16.80;99.90
13223;DHT22;6676;45.192;5.722;2023-05-07T03:28:39;16.80;99.90
13223;DHT22;6676;45.192;5.722;2023-05-07T03:31:33;16.90;99.90
13223;DHT22;6676;45.192;5.722;2023-05-07T03:34:25;16.90;99.90
13223;DHT22;6676;45.192;5.722;2023-05-07T03:37:17;16.90;99.90
13223;DHT22;6676;45.192;5.722;2023-05-07T03:40:11;16.90;99.90
13223;DHT22;6676;45.192;5.722;2023-05-07T03:43:04;16.90;99.90
13223;DHT22;6676;45.192;5.722;2023-05-07T03:45:57;16.90;99.90
13223;DHT22;6676;45.192;5.722;2023-05-07T03:48:50;17.00;99.90
13223;DHT22;6676;45.192;5.722;2023-05-07T03:51:43;17.00;99.90
13223;DHT22;6676;45.192;5.722;2023-05-07T03:54:34;17.00;99.90
13223;DHT22;6676;45.192;5.722;2023-05-07T03:57:26;17.00;99.90
13223;DHT22;6676;45.192;5.722;2023-05-07T04:00:19;17.00;99.90
13223;DHT22;6676;45.192;5.722;2023-05-07T04:03:11;16.90;99.90
13223;DHT22;6676;45.192;5.722;2023-05-07T04:06:05;16.90;99.90
13223;DHT22;6676;45.192;5.722;2023-05-07T04:08:58;16.70;99.90
13223;DHT22;6676;45.192;5.722;2023-05-07T04:11:49;16.70;99.90
13223;DHT22;6676;45.192;5.722;2023-05-07T04:14:41;16.70;99.90
13223;DHT22;6676;45.192;5.722;2023-05-07T04:17:33;16.60;99.90
13223;DHT22;6676;45.192;5.722;2023-05-07T04:20:26;16.70;99.90
13223;DHT22;6676;45.192;5.722;2023-05-07T04:23:19;16.60;99.90
13223;DHT22;6676;45.192;5.722;2023-05-07T04:26:11;16.50;99.90
13223;DHT22;6676;45.192;5.722;2023-05-07T04:29:05;16.50;99.90
13223;DHT22;6676;45.192;5.722;2023-05-07T04:31:57;16.50;99.90
13223;DHT22;6676;45.192;5.722;2023-05-07T04:34:49;16.50;99.90
13223;DHT22;6676;45.192;5.722;2023-05-07T04:37:41;16.60;99.90
13223;DHT22;6676;45.192;5.722;2023-05-07T04:40:33;16.60;99.90
13223;DHT22;6676;45.192;5.722;2023-05-07T04:43:27;16.70;99.90
13223;DHT22;6676;45.192;5.722;2023-05-07T04:46:18;16.80;99.90
13223;DHT22;6676;45.192;5.722;2023-05-07T04:49:11;16.80;99.90
13223;DHT22;6676;45.192;5.722;2023-05-07T04:52:03;16.90;99.90
13223;DHT22;6676;45.192;5.722;2023-05-07T04:54:55;16.90;99.90
13223;DHT22;6676;45.192;5.722;2023-05-07T04:57:47;16.90;99.90
13223;DHT22;6676;45.192;5.722;2023-05-07T05:00:42;16.90;99.90
13223;DHT22;6676;45.192;5.722;2023-05-07T05:03:34;16.90;99.90
13223;DHT22;6676;45.192;5.722;2023-05-07T05:06:26;16.90;99.90
13223;DHT22;6676;45.192;5.722;2023-05-07T05:09:18;16.80;99.90
13223;DHT22;6676;45.192;5.722;2023-05-07T05:12:09;16.70;99.90
13223;DHT22;6676;45.192;5.722;2023-05-07T05:15:01;16.70;99.90
13223;DHT22;6676;45.192;5.722;2023-05-07T05:17:53;16.70;99.90
13223;DHT22;6676;45.192;5.722;2023-05-07T05:20:46;16.70;99.90
13223;DHT22;6676;45.192;5.722;2023-05-07T05:23:40;16.60;99.90
13223;DHT22;6676;45.192;5.722;2023-05-07T05:26:33;16.50;99.90
13223;DHT22;6676;45.192;5.722;2023-05-07T05:29:25;16.40;99.90
13223;DHT22;6676;45.192;5.722;2023-05-07T05:32:16;16.30;99.90
13223;DHT22;6676;45.192;5.722;2023-05-07T05:35:14;16.30;99.90
13223;DHT22;6676;45.192;5.722;2023-05-07T05:38:03;16.30;99.90
13223;DHT22;6676;45.192;5.722;2023-05-07T05:40:55;16.20;99.90
13223;DHT22;6676;45.192;5.722;2023-05-07T05:43:48;16.10;99.90
13223;DHT22;6676;45.192;5.722;2023-05-07T05:46:40;16.10;99.90
13223;DHT22;6676;45.192;5.722;2023-05-07T05:49:32;16.00;99.90
13223;DHT22;6676;45.192;5.722;2023-05-07T05:52:26;16.00;99.90
13223;DHT22;6676;45.192;5.722;2023-05-07T05:55:18;16.00;99.90
13223;DHT22;6676;45.192;5.722;2023-05-07T05:58:10;16.00;99.90
13223;DHT22;6676;45.192;5.722;2023-05-07T06:01:04;15.90;99.90
13223;DHT22;6676;45.192;5.722;2023-05-07T06:03:57;15.90;99.90
13223;DHT22;6676;45.192;5.722;2023-05-07T06:06:48;15.90;99.90
13223;DHT22;6676;45.192;5.722;2023-05-07T06:09:42;16.00;99.90
13223;DHT22;6676;45.192;5.722;2023-05-07T06:12:34;16.00;99.90
13223;DHT22;6676;45.192;5.722;2023-05-07T06:15:28;16.00;99.90
13223;DHT22;6676;45.192;5.722;2023-05-07T06:18:22;16.10;99.90
13223;DHT22;6676;45.192;5.722;2023-05-07T06:21:15;16.10;99.90
13223;DHT22;6676;45.192;5.722;2023-05-07T06:24:08;16.20;99.90
13223;DHT22;6676;45.192;5.722;2023-05-07T06:29:42;16.40;99.90
13223;DHT22;6676;45.192;5.722;2023-05-07T06:32:35;16.60;99.90
13223;DHT22;6676;45.192;5.722;2023-05-07T06:35:27;16.90;99.90
13223;DHT22;6676;45.192;5.722;2023-05-07T06:38:19;17.10;99.90
13223;DHT22;6676;45.192;5.722;2023-05-07T06:41:10;17.20;99.90
13223;DHT22;6676;45.192;5.722;2023-05-07T06:44:02;17.30;99.90
13223;DHT22;6676;45.192;5.722;2023-05-07T06:47:00;17.50;99.90
13223;DHT22;6676;45.192;5.722;2023-05-07T06:49:52;17.60;99.90
13223;DHT22;6676;45.192;5.722;2023-05-07T06:52:47;17.60;99.90
13223;DHT22;6676;45.192;5.722;2023-05-07T06:55:39;17.70;99.90
13223;DHT22;6676;45.192;5.722;2023-05-07T06:58:31;17.90;99.90
13223;DHT22;6676;45.192;5.722;2023-05-07T07:01:23;18.00;99.90
13223;DHT22;6676;45.192;5.722;2023-05-07T07:04:15;18.10;99.90
13223;DHT22;6676;45.192;5.722;2023-05-07T07:07:13;18.20;99.90
13223;DHT22;6676;45.192;5.722;2023-05-07T07:10:07;18.40;99.90
13223;DHT22;6676;45.192;5.722;2023-05-07T07:13:00;18.40;99.90
13223;DHT22;6676;45.192;5.722;2023-05-07T07:15:51;18.50;99.90
13223;DHT22;6676;45.192;5.722;2023-05-07T07:18:45;18.40;99.90
13223;DHT22;6676;45.192;5.722;2023-05-07T07:21:43;18.40;99.90
13223;DHT22;6676;45.192;5.722;2023-05-07T07:24:43;18.50;99.90
13223;DHT22;6676;45.192;5.722;2023-05-07T07:27:38;18.60;99.90
13223;DHT22;6676;45.192;5.722;2023-05-07T07:30:33;18.60;99.90
13223;DHT22;6676;45.192;5.722;2023-05-07T07:33:25;18.80;99.90
13223;DHT22;6676;45.192;5.722;2023-05-07T07:36:18;18.90;99.90
13223;DHT22;6676;45.192;5.722;2023-05-07T07:39:12;18.90;99.90
13223;DHT22;6676;45.192;5.722;2023-05-07T07:42:04;19.00;99.90
13223;DHT22;6676;45.192;5.722;2023-05-07T07:44:59;19.10;99.90
13223;DHT22;6676;45.192;5.722;2023-05-07T07:47:54;19.20;99.90
13223;DHT22;6676;45.192;5.722;2023-05-07T07:50:50;19.30;99.90
13223;DHT22;6676;45.192;5.722;2023-05-07T07:53:41;19.40;99.90
13223;DHT22;6676;45.192;5.722;2023-05-07T07:56:34;19.70;99.90
13223;DHT22;6676;45.192;5.722;2023-05-07T07:59:28;19.80;99.90
13223;DHT22;6676;45.192;5.722;2023-05-07T08:02:21;19.90;99.90
13223;DHT22;6676;45.192;5.722;2023-05-07T08:05:13;19.90;99.90
13223;DHT22;6676;45.192;5.722;2023-05-07T08:08:06;19.90;99.90
13223;DHT22;6676;45.192;5.722;2023-05-07T08:10:58;19.90;99.90
13223;DHT22;6676;45.192;5.722;2023-05-07T08:13:51;19.90;99.90
13223;DHT22;6676;45.192;5.722;2023-05-07T08:16:44;19.80;99.90
13223;DHT22;6676;45.192;5.722;2023-05-07T08:19:36;19.70;99.90
13223;DHT22;6676;45.192;5.722;2023-05-07T08:22:30;19.60;99.90
13223;DHT22;6676;45.192;5.722;2023-05-07T08:25:22;19.50;99.90
13223;DHT22;6676;45.192;5.722;2023-05-07T08:28:13;19.60;99.90
13223;DHT22;6676;45.192;5.722;2023-05-07T08:31:05;19.50;99.90
13223;DHT22;6676;45.192;5.722;2023-05-07T08:33:58;19.60;99.90
13223;DHT22;6676;45.192;5.722;2023-05-07T08:36:50;19.70;99.90
13223;DHT22;6676;45.192;5.722;2023-05-07T08:39:43;19.60;99.90
13223;DHT22;6676;45.192;5.722;2023-05-07T08:45:19;19.80;99.90
13223;DHT22;6676;45.192;5.722;2023-05-07T08:48:15;19.90;99.90
13223;DHT22;6676;45.192;5.722;2023-05-07T08:51:13;19.90;99.90
13223;DHT22;6676;45.192;5.722;2023-05-07T08:54:07;19.80;99.90
13223;DHT22;6676;45.192;5.722;2023-05-07T08:57:00;19.80;99.90
13223;DHT22;6676;45.192;5.722;2023-05-07T08:59:54;19.80;99.90
13223;DHT22;6676;45.192;5.722;2023-05-07T09:02:46;19.70;99.90
13223;DHT22;6676;45.192;5.722;2023-05-07T09:05:38;19.80;99.90
13223;DHT22;6676;45.192;5.722;2023-05-07T09:08:31;19.90;99.90
13223;DHT22;6676;45.192;5.722;2023-05-07T09:11:24;19.80;99.90
13223;DHT22;6676;45.192;5.722;2023-05-07T09:14:18;19.70;99.90
13223;DHT22;6676;45.192;5.722;2023-05-07T09:17:11;19.90;99.90
13223;DHT22;6676;45.192;5.722;2023-05-07T09:20:07;19.70;99.90
13223;DHT22;6676;45.192;5.722;2023-05-07T09:23:00;19.50;99.90
13223;DHT22;6676;45.192;5.722;2023-05-07T09:25:53;19.40;99.90
13223;DHT22;6676;45.192;5.722;2023-05-07T09:28:47;19.30;99.90
13223;DHT22;6676;45.192;5.722;2023-05-07T09:31:39;19.20;99.90
13223;DHT22;6676;45.192;5.722;2023-05-07T09:34:32;19.30;99.90
13223;DHT22;6676;45.192;5.722;2023-05-07T09:37:26;19.40;99.90
13223;DHT22;6676;45.192;5.722;2023-05-07T09:40:25;19.40;99.90
13223;DHT22;6676;45.192;5.722;2023-05-07T09:43:24;19.20;99.90
13223;DHT22;6676;45.192;5.722;2023-05-07T09:46:19;19.30;99.90
13223;DHT22;6676;45.192;5.722;2023-05-07T09:49:18;19.40;99.90
13223;DHT22;6676;45.192;5.722;2023-05-07T09:52:10;19.30;99.90
13223;DHT22;6676;45.192;5.722;2023-05-07T09:55:08;19.30;99.90
13223;DHT22;6676;45.192;5.722;2023-05-07T09:58:01;19.10;99.90
13223;DHT22;6676;45.192;5.722;2023-05-07T10:00:57;19.10;99.90
13223;DHT22;6676;45.192;5.722;2023-05-07T10:03:51;19.00;99.90
13223;DHT22;6676;45.192;5.722;2023-05-07T10:06:44;19.00;99.90
13223;DHT22;6676;45.192;5.722;2023-05-07T10:09:40;19.00;99.90
13223;DHT22;6676;45.192;5.722;2023-05-07T10:12:35;18.80;99.90
13223;DHT22;6676;45.192;5.722;2023-05-07T10:15:32;18.50;99.90
13223;DHT22;6676;45.192;5.722;2023-05-07T10:18:27;18.50;99.90
13223;DHT22;6676;45.192;5.722;2023-05-07T10:21:22;18.40;99.90
13223;DHT22;6676;45.192;5.722;2023-05-07T10:24:21;18.40;99.90
13223;DHT22;6676;45.192;5.722;2023-05-07T10:27:15;18.30;99.90
13223;DHT22;6676;45.192;5.722;2023-05-07T10:30:13;18.30;99.90
13223;DHT22;6676;45.192;5.722;2023-05-07T10:33:06;18.20;99.90
13223;DHT22;6676;45.192;5.722;2023-05-07T10:36:01;18.10;99.90
13223;DHT22;6676;45.192;5.722;2023-05-07T10:38:54;18.00;99.90
13223;DHT22;6676;45.192;5.722;2023-05-07T10:41:47;18.00;99.90
13223;DHT22;6676;45.192;5.722;2023-05-07T10:44:40;18.00;99.90
13223;DHT22;6676;45.192;5.722;2023-05-07T10:47:33;17.90;99.90
13223;DHT22;6676;45.192;5.722;2023-05-07T10:50:30;18.00;99.90
13223;DHT22;6676;45.192;5.722;2023-05-07T10:53:27;18.00;99.90
13223;DHT22;6676;45.192;5.722;2023-05-07T10:56:42;18.00;99.90
13223;DHT22;6676;45.192;5.722;2023-05-07T10:59:41;18.00;99.90
13223;DHT22;6676;45.192;5.722;2023-05-07T11:03:08;18.00;99.90
13223;DHT22;6676;45.192;5.722;2023-05-07T11:06:15;18.10;99.90
13223;DHT22;6676;45.192;5.722;2023-05-07T11:09:17;18.20;99.90
13223;DHT22;6676;45.192;5.722;2023-05-07T11:12:15;18.20;99.90
13223;DHT22;6676;45.192;5.722;2023-05-07T11:15:44;18.30;99.90
13223;DHT22;6676;45.192;5.722;2023-05-07T11:18:58;18.50;99.90
13223;DHT22;6676;45.192;5.722;2023-05-07T11:21:51;18.60;99.90
13223;DHT22;6676;45.192;5.722;2023-05-07T11:24:50;18.60;99.90
13223;DHT22;6676;45.192;5.722;2023-05-07T11:27:45;18.50;99.90
13223;DHT22;6676;45.192;5.722;2023-05-07T11:30:43;18.40;99.90
13223;DHT22;6676;45.192;5.722;2023-05-07T11:33:44;18.40;99.90
13223;DHT22;6676;45.192;5.722;2023-05-07T11:36:56;18.40;99.90
13223;DHT22;6676;45.192;5.722;2023-05-07T11:40:04;18.30;99.90
13223;DHT22;6676;45.192;5.722;2023-05-07T11:42:59;18.30;99.90
13223;DHT22;6676;45.192;5.722;2023-05-07T11:46:04;18.30;99.90
13223;DHT22;6676;45.192;5.722;2023-05-07T11:48:52;18.20;99.90
13223;DHT22;6676;45.192;5.722;2023-05-07T11:54:25;18.00;99.90
13223;DHT22;6676;45.192;5.722;2023-05-07T11:57:17;18.00;99.90
13223;DHT22;6676;45.192;5.722;2023-05-07T12:00:10;17.90;99.90
13223;DHT22;6676;45.192;5.722;2023-05-07T12:05:42;18.00;99.90
13223;DHT22;6676;45.192;5.722;2023-05-07T12:08:35;18.10;99.90
13223;DHT22;6676;45.192;5.722;2023-05-07T12:11:27;18.00;99.90
13223;DHT22;6676;45.192;5.722;2023-05-07T12:14:19;18.10;99.90
13223;DHT22;6676;45.192;5.722;2023-05-07T12:17:11;18.20;99.90
13223;DHT22;6676;45.192;5.722;2023-05-07T12:20:04;18.20;99.90
13223;DHT22;6676;45.192;5.722;2023-05-07T12:25:37;18.10;99.90
13223;DHT22;6676;45.192;5.722;2023-05-07T12:28:36;18.20;99.90
13223;DHT22;6676;45.192;5.722;2023-05-07T12:31:29;18.20;99.90
13223;DHT22;6676;45.192;5.722;2023-05-07T12:34:28;18.10;99.90
13223;DHT22;6676;45.192;5.722;2023-05-07T12:37:15;18.10;99.90
13223;DHT22;6676;45.192;5.722;2023-05-07T12:40:09;18.20;99.90
13223;DHT22;6676;45.192;5.722;2023-05-07T12:43:02;18.20;99.90
13223;DHT22;6676;45.192;5.722;2023-05-07T12:45:55;18.30;99.90
13223;DHT22;6676;45.192;5.722;2023-05-07T12:48:47;18.30;99.90
13223;DHT22;6676;45.192;5.722;2023-05-07T12:51:39;18.20;99.90
13223;DHT22;6676;45.192;5.722;2023-05-07T12:54:32;18.10;99.90
13223;DHT22;6676;45.192;5.722;2023-05-07T12:57:24;18.10;99.90
13223;DHT22;6676;45.192;5.722;2023-05-07T13:00:17;18.00;99.90
13223;DHT22;6676;45.192;5.722;2023-05-07T13:03:08;18.00;99.90
13223;DHT22;6676;45.192;5.722;2023-05-07T13:06:02;17.90;99.90
13223;DHT22;6676;45.192;5.722;2023-05-07T13:08:54;17.90;99.90
13223;DHT22;6676;45.192;5.722;2023-05-07T13:11:46;17.80;99.90
13223;DHT22;6676;45.192;5.722;2023-05-07T13:14:38;17.90;99.90
13223;DHT22;6676;45.192;5.722;2023-05-07T13:17:29;17.90;99.90
13223;DHT22;6676;45.192;5.722;2023-05-07T13:20:21;18.00;99.90
13223;DHT22;6676;45.192;5.722;2023-05-07T13:23:13;17.90;99.90
13223;DHT22;6676;45.192;5.722;2023-05-07T13:26:04;17.90;99.90
13223;DHT22;6676;45.192;5.722;2023-05-07T13:28:57;17.90;99.90
13223;DHT22;6676;45.192;5.722;2023-05-07T13:31:49;17.80;99.90
13223;DHT22;6676;45.192;5.722;2023-05-07T13:34:40;17.70;99.90
13223;DHT22;6676;45.192;5.722;2023-05-07T13:37:32;17.80;99.90
13223;DHT22;6676;45.192;5.722;2023-05-07T13:40:24;17.70;99.90
13223;DHT22;6676;45.192;5.722;2023-05-07T13:43:16;17.70;99.90
13223;DHT22;6676;45.192;5.722;2023-05-07T13:46:08;17.70;99.90
13223;DHT22;6676;45.192;5.722;2023-05-07T13:49:00;17.70;99.90
13223;DHT22;6676;45.192;5.722;2023-05-07T13:51:51;17.80;99.90
13223;DHT22;6676;45.192;5.722;2023-05-07T13:54:43;17.70;99.90
13223;DHT22;6676;45.192;5.722;2023-05-07T13:57:35;17.80;99.90
13223;DHT22;6676;45.192;5.722;2023-05-07T14:00:27;17.70;99.90
13223;DHT22;6676;45.192;5.722;2023-05-07T14:03:19;17.60;99.90
13223;DHT22;6676;45.192;5.722;2023-05-07T14:06:10;17.60;99.90
13223;DHT22;6676;45.192;5.722;2023-05-07T14:09:02;17.50;99.90
13223;DHT22;6676;45.192;5.722;2023-05-07T14:11:55;17.60;99.90
13223;DHT22;6676;45.192;5.722;2023-05-07T14:14:47;17.50;99.90
13223;DHT22;6676;45.192;5.722;2023-05-07T14:17:39;17.50;99.90
13223;DHT22;6676;45.192;5.722;2023-05-07T14:20:31;17.50;99.90
13223;DHT22;6676;45.192;5.722;2023-05-07T14:23:22;17.40;99.90
13223;DHT22;6676;45.192;5.722;2023-05-07T14:26:16;17.40;99.90
13223;DHT22;6676;45.192;5.722;2023-05-07T14:29:13;17.40;99.90
13223;DHT22;6676;45.192;5.722;2023-05-07T14:32:07;17.50;99.90
13223;DHT22;6676;45.192;5.722;2023-05-07T14:37:50;17.50;99.90
13223;DHT22;6676;45.192;5.722;2023-05-07T14:40:49;17.50;99.90
13223;DHT22;6676;45.192;5.722;2023-05-07T14:43:47;17.40;99.90
13223;DHT22;6676;45.192;5.722;2023-05-07T14:46:40;17.50;99.90
13223;DHT22;6676;45.192;5.722;2023-05-07T14:49:32;17.50;99.90
13223;DHT22;6676;45.192;5.722;2023-05-07T14:52:23;17.50;99.90
13223;DHT22;6676;45.192;5.722;2023-05-07T14:55:19;17.50;99.90
13223;DHT22;6676;45.192;5.722;2023-05-07T14:58:11;17.50;99.90
13223;DHT22;6676;45.192;5.722;2023-05-07T15:01:06;17.50;99.90
13223;DHT22;6676;45.192;5.722;2023-05-07T15:04:00;17.40;99.90
13223;DHT22;6676;45.192;5.722;2023-05-07T15:06:53;17.50;99.90
13223;DHT22;6676;45.192;5.722;2023-05-07T15:09:45;17.50;99.90
13223;DHT22;6676;45.192;5.722;2023-05-07T15:12:37;17.50;99.90
13223;DHT22;6676;45.192;5.722;2023-05-07T15:15:28;17.50;99.90
13223;DHT22;6676;45.192;5.722;2023-05-07T15:18:27;17.50;99.90
13223;DHT22;6676;45.192;5.722;2023-05-07T15:21:25;17.50;99.90
13223;DHT22;6676;45.192;5.722;2023-05-07T15:24:21;17.60;99.90
13223;DHT22;6676;45.192;5.722;2023-05-07T15:27:13;17.60;99.90
13223;DHT22;6676;45.192;5.722;2023-05-07T15:30:10;17.50;99.90
13223;DHT22;6676;45.192;5.722;2023-05-07T15:33:04;17.30;99.90
13223;DHT22;6676;45.192;5.722;2023-05-07T15:38:34;17.10;99.90
13223;DHT22;6676;45.192;5.722;2023-05-07T15:41:26;17.00;99.90
13223;DHT22;6676;45.192;5.722;2023-05-07T15:44:17;17.00;99.90
13223;DHT22;6676;45.192;5.722;2023-05-07T15:47:08;17.00;99.90
13223;DHT22;6676;45.192;5.722;2023-05-07T15:50:00;17.10;99.90
13223;DHT22;6676;45.192;5.722;2023-05-07T15:52:51;17.10;99.90
13223;DHT22;6676;45.192;5.722;2023-05-07T15:58:21;17.30;99.90
13223;DHT22;6676;45.192;5.722;2023-05-07T16:01:12;17.40;99.90
13223;DHT22;6676;45.192;5.722;2023-05-07T16:04:05;17.40;99.90
13223;DHT22;6676;45.192;5.722;2023-05-07T16:06:56;17.40;99.90
13223;DHT22;6676;45.192;5.722;2023-05-07T16:09:48;17.40;99.90
13223;DHT22;6676;45.192;5.722;2023-05-07T16:12:39;17.50;99.90
13223;DHT22;6676;45.192;5.722;2023-05-07T16:15:30;17.50;99.90
13223;DHT22;6676;45.192;5.722;2023-05-07T16:18:22;17.60;99.90
13223;DHT22;6676;45.192;5.722;2023-05-07T16:21:13;17.60;99.90
13223;DHT22;6676;45.192;5.722;2023-05-07T16:24:05;17.60;99.90
13223;DHT22;6676;45.192;5.722;2023-05-07T16:26:56;17.60;99.90
13223;DHT22;6676;45.192;5.722;2023-05-07T16:29:47;17.70;99.90
13223;DHT22;6676;45.192;5.722;2023-05-07T16:32:39;17.80;99.90
13223;DHT22;6676;45.192;5.722;2023-05-07T16:35:31;17.90;99.90
13223;DHT22;6676;45.192;5.722;2023-05-07T16:38:22;18.00;99.90
13223;DHT22;6676;45.192;5.722;2023-05-07T16:41:15;17.90;99.90
13223;DHT22;6676;45.192;5.722;2023-05-07T16:44:07;17.70;99.90
13223;DHT22;6676;45.192;5.722;2023-05-07T16:46:58;17.60;99.90
13223;DHT22;6676;45.192;5.722;2023-05-07T16:49:50;17.70;99.90
13223;DHT22;6676;45.192;5.722;2023-05-07T16:55:21;17.70;99.90
13223;DHT22;6676;45.192;5.722;2023-05-07T16:58:12;17.70;99.90
13223;DHT22;6676;45.192;5.722;2023-05-07T17:03:42;17.60;99.90
13223;DHT22;6676;45.192;5.722;2023-05-07T17:06:34;17.40;99.90
13223;DHT22;6676;45.192;5.722;2023-05-07T17:09:25;17.40;99.90
13223;DHT22;6676;45.192;5.722;2023-05-07T17:12:17;17.40;99.90
13223;DHT22;6676;45.192;5.722;2023-05-07T17:15:10;17.50;99.90
13223;DHT22;6676;45.192;5.722;2023-05-07T17:20:47;17.40;99.90
13223;DHT22;6676;45.192;5.722;2023-05-07T17:23:39;17.50;99.90
13223;DHT22;6676;45.192;5.722;2023-05-07T17:26:30;17.50;99.90
13223;DHT22;6676;45.192;5.722;2023-05-07T17:32:03;17.60;99.90
13223;DHT22;6676;45.192;5.722;2023-05-07T17:34:59;17.70;99.90
13223;DHT22;6676;45.192;5.722;2023-05-07T17:37:50;17.70;99.90
13223;DHT22;6676;45.192;5.722;2023-05-07T17:43:24;17.90;99.90
13223;DHT22;6676;45.192;5.722;2023-05-07T17:46:16;17.80;99.90
13223;DHT22;6676;45.192;5.722;2023-05-07T17:49:08;17.80;99.90
13223;DHT22;6676;45.192;5.722;2023-05-07T17:51:59;17.80;99.90
13223;DHT22;6676;45.192;5.722;2023-05-07T17:54:50;17.90;99.90
13223;DHT22;6676;45.192;5.722;2023-05-07T17:57:42;18.00;99.90
13223;DHT22;6676;45.192;5.722;2023-05-07T18:00:34;18.10;99.90
13223;DHT22;6676;45.192;5.722;2023-05-07T18:03:26;18.10;99.90
13223;DHT22;6676;45.192;5.722;2023-05-07T18:06:19;18.10;99.90
13223;DHT22;6676;45.192;5.722;2023-05-07T18:11:51;18.00;99.90
13223;DHT22;6676;45.192;5.722;2023-05-07T18:17:21;17.80;99.90
13223;DHT22;6676;45.192;5.722;2023-05-07T18:20:16;17.70;99.90
13223;DHT22;6676;45.192;5.722;2023-05-07T18:23:07;17.70;99.90
13223;DHT22;6676;45.192;5.722;2023-05-07T18:25:59;17.60;99.90
13223;DHT22;6676;45.192;5.722;2023-05-07T18:31:28;17.50;99.90
13223;DHT22;6676;45.192;5.722;2023-05-07T18:34:20;17.60;99.90
13223;DHT22;6676;45.192;5.722;2023-05-07T18:37:11;17.60;99.90
13223;DHT22;6676;45.192;5.722;2023-05-07T18:40:04;17.60;99.90
13223;DHT22;6676;45.192;5.722;2023-05-07T18:42:56;17.60;99.90
13223;DHT22;6676;45.192;5.722;2023-05-07T18:45:48;17.60;99.90
13223;DHT22;6676;45.192;5.722;2023-05-07T18:51:24;17.50;99.90
13223;DHT22;6676;45.192;5.722;2023-05-07T18:54:15;17.90;99.90
13223;DHT22;6676;45.192;5.722;2023-05-07T18:57:06;17.80;99.90
13223;DHT22;6676;45.192;5.722;2023-05-07T18:59:58;17.70;99.90
13223;DHT22;6676;45.192;5.722;2023-05-07T19:02:49;17.60;99.90
13223;DHT22;6676;45.192;5.722;2023-05-07T19:05:41;17.60;99.90
13223;DHT22;6676;45.192;5.722;2023-05-07T19:08:32;17.50;99.90
13223;DHT22;6676;45.192;5.722;2023-05-07T19:14:02;17.60;99.90
13223;DHT22;6676;45.192;5.722;2023-05-07T19:16:55;17.40;99.90
13223;DHT22;6676;45.192;5.722;2023-05-07T19:19:46;17.10;99.90
13223;DHT22;6676;45.192;5.722;2023-05-07T19:22:38;17.10;99.90